Itati, Argentina
Current Conditions -  °F | °C
As of 6:00 PM on Thursday 18 Dec 2014 (Local Time) from SARC Reporting Station
Scattered Clouds Scattered Clouds  
Wind Chill: 88°   Ceiling: Unl
Heat Index: 90°   Visibility: 6mi
Dew Point: 66°   Wind: 6mph
Humidity: 49%   Direction: 140°SE
Pressure: 29.77"   Gusts: NA
Location:  27.27°S, 58.25°W
Report Text: SARC 182100Z 14005KT 090V180 9999 FEW030 SCT200 31/19 Q1008
Loading
Personal Weather Stations






























Interactive Weather Map New forecast layout! Learn more

10-Day Weather Forecast

Advertisements
Track Severe Weather on mobile